createdAt,value
2023-03-29T00:02:13.253Z,99429.84
2023-03-29T00:04:42.483Z,99428.78
2023-03-29T00:07:10.749Z,99430.00
2023-03-29T00:09:37.389Z,99416.44
2023-03-29T00:12:05.329Z,99409.16
2023-03-29T00:14:32.095Z,99414.25
2023-03-29T00:16:59.202Z,99416.91
2023-03-29T00:19:26.179Z,99415.31
2023-03-29T00:21:52.853Z,99414.75
2023-03-29T00:24:21.219Z,99420.03
2023-03-29T00:26:48.374Z,99411.84
2023-03-29T00:29:15.126Z,99412.66
2023-03-29T00:31:41.779Z,99418.41
2023-03-29T00:34:08.454Z,99412.72
2023-03-29T00:36:35.158Z,99406.22
2023-03-29T00:39:01.783Z,99401.75
2023-03-29T00:41:28.520Z,99405.34
2023-03-29T00:44:02.329Z,99408.69
2023-03-29T00:46:31.696Z,99401.81
2023-03-29T00:49:14.338Z,99393.91
2023-03-29T00:51:42.680Z,99385.06
2023-03-29T00:54:15.184Z,99390.78
2023-03-29T00:56:47.523Z,99394.06
2023-03-29T00:59:22.378Z,99390.19
2023-03-29T01:01:57.382Z,99381.25
2023-03-29T01:04:53.762Z,99354.34
2023-03-29T01:07:28.444Z,99364.25
2023-03-29T01:10:05.348Z,99376.50
2023-03-29T01:12:37.391Z,99377.53
2023-03-29T01:15:09.969Z,99375.97
2023-03-29T01:17:37.369Z,99376.69
2023-03-29T01:20:14.486Z,99374.25
2023-03-29T01:23:04.194Z,99358.56
2023-03-29T01:25:49.401Z,99341.84
2023-03-29T01:28:23.406Z,99345.81
2023-03-29T01:31:02.009Z,99358.28
2023-03-29T01:33:34.185Z,99353.53
2023-03-29T01:36:14.698Z,99355.72
2023-03-29T01:38:48.558Z,99361.97
2023-03-29T01:41:15.012Z,99353.50
2023-03-29T01:43:45.945Z,99335.38
2023-03-29T01:46:24.900Z,99330.03
2023-03-29T01:49:02.189Z,99342.91
2023-03-29T01:51:40.473Z,99353.88
2023-03-29T01:54:23.280Z,99343.72
2023-03-29T01:56:52.364Z,99339.13
2023-03-29T01:59:23.840Z,99333.97
2023-03-29T02:01:55.225Z,99334.06
2023-03-29T02:04:27.902Z,99331.56
2023-03-29T02:06:57.054Z,99330.13
2023-03-29T02:09:23.945Z,99321.94
2023-03-29T02:11:51.928Z,99309.81
2023-03-29T02:14:19.354Z,99318.91
2023-03-29T02:16:46.406Z,99331.38
2023-03-29T02:19:13.654Z,99318.94
2023-03-29T02:21:49.509Z,99305.72
2023-03-29T02:24:20.451Z,99311.97
2023-03-29T02:26:47.776Z,99309.09
2023-03-29T02:29:15.044Z,99317.13
2023-03-29T02:31:49.006Z,99308.06
2023-03-29T02:34:16.043Z,99305.44
2023-03-29T02:36:48.865Z,99295.75
2023-03-29T02:39:17.811Z,99292.50
2023-03-29T02:41:50.036Z,99296.94
2023-03-29T02:44:26.275Z,99286.59
2023-03-29T02:47:06.683Z,99296.34
2023-03-29T02:49:33.352Z,99275.28
2023-03-29T02:52:09.241Z,99275.69
2023-03-29T02:54:43.090Z,99281.25
2023-03-29T02:57:11.949Z,99289.84
2023-03-29T02:59:40.845Z,99276.69
2023-03-29T03:02:07.565Z,99281.59
2023-03-29T03:04:35.711Z,99282.28
2023-03-29T03:07:04.744Z,99281.63
2023-03-29T03:09:31.876Z,99278.34
2023-03-29T03:11:58.549Z,99272.06
2023-03-29T03:14:26.536Z,99276.59
2023-03-29T03:16:53.186Z,99259.06
2023-03-29T03:19:21.574Z,99262.66
2023-03-29T03:21:48.177Z,99271.50
2023-03-29T03:24:15.690Z,99273.50
2023-03-29T03:26:42.374Z,99278.13
2023-03-29T03:29:09.006Z,99280.94
2023-03-29T03:31:37.064Z,99277.19
2023-03-29T03:34:05.668Z,99273.66
2023-03-29T03:36:34.667Z,99269.59
2023-03-29T03:39:02.714Z,99272.56
2023-03-29T03:41:29.383Z,99274.50
2023-03-29T03:43:56.125Z,99275.22
2023-03-29T03:46:22.755Z,99264.59
2023-03-29T03:48:50.814Z,99255.94
2023-03-29T03:51:19.086Z,99256.13
2023-03-29T03:53:45.834Z,99257.72
2023-03-29T03:56:13.569Z,99265.53
2023-03-29T03:58:41.245Z,99267.34
2023-03-29T04:01:08.925Z,99265.41
2023-03-29T04:03:37.622Z,99270.38
2023-03-29T04:06:05.184Z,99271.50
2023-03-29T04:08:32.066Z,99269.97
2023-03-29T04:11:00.128Z,99275.81
2023-03-29T04:13:27.699Z,99274.53
2023-03-29T04:15:58.233Z,99272.22
2023-03-29T04:18:27.678Z,99275.06
2023-03-29T04:20:54.570Z,99273.47
2023-03-29T04:23:21.278Z,99276.94
2023-03-29T04:25:49.201Z,99274.94
2023-03-29T04:28:16.216Z,99276.72
2023-03-29T04:30:42.910Z,99281.69
2023-03-29T04:33:10.403Z,99279.97
2023-03-29T04:35:37.904Z,99273.53
2023-03-29T04:38:04.614Z,99278.38
2023-03-29T04:40:31.718Z,99271.88
2023-03-29T04:43:00.140Z,99265.03
2023-03-29T04:45:27.391Z,99262.31
2023-03-29T04:47:57.169Z,99264.38
2023-03-29T04:50:25.227Z,99270.75
2023-03-29T04:52:53.284Z,99272.84
2023-03-29T04:55:20.336Z,99274.81
2023-03-29T04:57:47.346Z,99266.09
2023-03-29T05:00:15.728Z,99268.47
2023-03-29T05:02:46.188Z,99272.41
2023-03-29T05:05:13.962Z,99274.31
2023-03-29T05:07:40.978Z,99278.47
2023-03-29T05:10:08.485Z,99274.06
2023-03-29T05:12:36.840Z,99286.75
2023-03-29T05:15:08.159Z,99288.88
2023-03-29T05:17:36.224Z,99271.19
2023-03-29T05:20:09.265Z,99275.69
2023-03-29T05:22:36.661Z,99273.50
2023-03-29T05:25:03.548Z,99275.19
2023-03-29T05:27:30.813Z,99281.69
2023-03-29T05:29:58.896Z,99276.16
2023-03-29T05:32:25.789Z,99273.16
2023-03-29T05:34:52.977Z,99274.22
2023-03-29T05:37:19.729Z,99281.81
2023-03-29T05:39:46.446Z,99276.97
2023-03-29T05:42:15.743Z,99280.47
2023-03-29T05:44:43.713Z,99274.34
2023-03-29T05:47:11.746Z,99276.78
2023-03-29T05:49:39.668Z,99287.38
2023-03-29T05:52:06.774Z,99289.78
2023-03-29T05:54:34.666Z,99289.78
2023-03-29T05:57:01.758Z,99294.28
2023-03-29T05:59:29.791Z,99285.41
2023-03-29T06:01:56.783Z,99295.16
2023-03-29T06:04:24.586Z,99296.00
2023-03-29T06:06:53.058Z,99296.41
2023-03-29T06:09:19.992Z,99293.59
2023-03-29T06:11:46.654Z,99286.78
2023-03-29T06:14:17.580Z,99293.31
2023-03-29T06:16:46.294Z,99297.19
2023-03-29T06:19:14.201Z,99291.75
2023-03-29T06:21:42.525Z,99296.19
2023-03-29T06:24:09.429Z,99294.38
2023-03-29T06:26:37.184Z,99291.75
2023-03-29T06:29:04.327Z,99282.00
2023-03-29T06:31:31.428Z,99283.59
2023-03-29T06:33:58.411Z,99285.03
2023-03-29T06:36:25.942Z,99287.28
2023-03-29T06:38:52.727Z,99287.25
2023-03-29T06:41:21.507Z,99284.00
2023-03-29T06:43:48.168Z,99282.97
2023-03-29T06:46:16.271Z,99287.63
2023-03-29T06:48:42.985Z,99281.13
2023-03-29T06:51:09.611Z,99283.09
2023-03-29T06:53:38.086Z,99278.19
2023-03-29T06:56:10.377Z,99281.41
2023-03-29T06:58:37.218Z,99287.06
2023-03-29T07:01:04.272Z,99280.13
2023-03-29T07:03:31.628Z,99281.13
2023-03-29T07:06:09.710Z,99275.16
2023-03-29T07:08:43.507Z,99274.66
2023-03-29T07:11:15.139Z,99274.22
2023-03-29T07:13:43.089Z,99278.69
2023-03-29T07:16:14.690Z,99275.31
2023-03-29T07:18:43.076Z,99271.97
2023-03-29T07:21:13.815Z,99269.88
2023-03-29T07:23:41.018Z,99280.00
2023-03-29T07:26:09.373Z,99278.69
2023-03-29T07:28:39.572Z,99279.03
2023-03-29T07:31:12.200Z,99275.69
2023-03-29T07:33:39.368Z,99278.47
2023-03-29T07:36:06.959Z,99275.53
2023-03-29T07:38:35.232Z,99262.63
2023-03-29T07:41:04.857Z,99268.91
2023-03-29T07:43:32.254Z,99270.84
2023-03-29T07:46:03.124Z,99267.28
2023-03-29T07:48:30.233Z,99265.81
2023-03-29T07:50:57.389Z,99259.84
2023-03-29T07:53:24.382Z,99260.22
2023-03-29T07:55:53.865Z,99264.81
2023-03-29T07:58:22.972Z,99269.97
2023-03-29T08:00:50.764Z,99267.59
2023-03-29T08:03:17.801Z,99270.25
2023-03-29T08:05:45.100Z,99266.25
2023-03-29T08:08:12.432Z,99268.63
2023-03-29T08:10:39.697Z,99269.25
2023-03-29T08:13:08.444Z,99271.97
2023-03-29T08:15:40.116Z,99271.78
2023-03-29T08:18:07.958Z,99262.31
2023-03-29T08:20:34.730Z,99268.00
2023-03-29T08:23:01.849Z,99264.09
2023-03-29T08:25:28.464Z,99268.69
2023-03-29T08:27:55.156Z,99271.25
2023-03-29T08:30:22.059Z,99267.38
2023-03-29T08:32:52.177Z,99282.34
2023-03-29T08:35:20.408Z,99282.81
2023-03-29T08:37:47.001Z,99284.34
2023-03-29T08:40:22.904Z,99280.53
2023-03-29T08:43:15.913Z,99284.53
2023-03-29T08:45:52.777Z,99285.22
2023-03-29T08:48:43.807Z,99286.88
2023-03-29T08:51:23.606Z,99282.34
2023-03-29T08:53:59.835Z,99280.41
2023-03-29T08:56:34.612Z,99283.81
2023-03-29T08:59:03.360Z,99285.94
2023-03-29T09:01:35.391Z,99295.28
2023-03-29T09:04:14.823Z,99294.50
2023-03-29T09:06:41.656Z,99295.38
2023-03-29T09:09:30.644Z,99292.53
2023-03-29T09:12:26.096Z,99288.53
2023-03-29T09:14:58.000Z,99288.34
2023-03-29T09:17:34.250Z,99287.06
2023-03-29T09:20:19.639Z,99282.09
2023-03-29T09:23:01.734Z,99280.31
2023-03-29T09:26:03.340Z,99281.47
2023-03-29T09:28:55.615Z,99283.94
2023-03-29T09:31:28.558Z,99283.72
2023-03-29T09:34:02.044Z,99279.75
2023-03-29T09:36:48.843Z,99276.75
2023-03-29T09:39:16.730Z,99280.19
2023-03-29T09:41:59.765Z,99278.22
2023-03-29T09:44:32.479Z,99279.56
2023-03-29T09:47:25.623Z,99282.47
2023-03-29T09:49:59.110Z,99280.34
2023-03-29T09:52:25.846Z,99283.84
2023-03-29T09:54:52.734Z,99285.50
2023-03-29T09:57:20.822Z,99274.81
2023-03-29T09:59:50.882Z,99277.91
2023-03-29T10:02:21.170Z,99269.97
2023-03-29T10:05:02.002Z,99274.09
2023-03-29T10:07:44.580Z,99266.16
2023-03-29T10:10:29.922Z,99264.75
2023-03-29T10:13:04.087Z,99266.19
2023-03-29T10:15:31.604Z,99261.88
2023-03-29T10:18:08.500Z,99260.06
2023-03-29T10:20:36.558Z,99256.72
2023-03-29T10:23:06.741Z,99260.78
2023-03-29T10:25:38.776Z,99253.56
2023-03-29T10:28:17.646Z,99254.00
2023-03-29T10:30:52.446Z,99255.00
2023-03-29T10:33:25.258Z,99244.72
2023-03-29T10:35:52.183Z,99255.31
2023-03-29T10:38:22.957Z,99254.78
2023-03-29T10:40:53.151Z,99250.44
2023-03-29T10:43:19.773Z,99256.69
2023-03-29T10:45:51.813Z,99249.88
2023-03-29T10:48:19.518Z,99240.63
2023-03-29T10:50:53.022Z,99242.59
2023-03-29T10:53:29.202Z,99240.31
2023-03-29T10:56:15.693Z,99240.22
2023-03-29T10:58:50.028Z,99228.94
2023-03-29T11:01:44.668Z,99234.94
2023-03-29T11:04:38.495Z,99233.22
2023-03-29T11:07:22.584Z,99239.44
2023-03-29T11:10:11.172Z,99229.69
2023-03-29T11:12:52.102Z,99228.22
2023-03-29T11:15:33.857Z,99225.25
2023-03-29T11:18:19.257Z,99229.13
2023-03-29T11:20:51.527Z,99220.91
2023-03-29T11:23:39.875Z,99226.75
2023-03-29T11:26:43.350Z,99217.63
2023-03-29T11:29:21.957Z,99217.91
2023-03-29T11:32:08.573Z,99223.69
2023-03-29T11:34:35.150Z,99218.88
2023-03-29T11:37:28.647Z,99215.84
2023-03-29T11:40:07.588Z,99210.41
2023-03-29T11:42:39.029Z,99203.41
2023-03-29T11:45:12.119Z,99212.34
2023-03-29T11:47:41.953Z,99204.03
2023-03-29T11:50:19.874Z,99208.25
2023-03-29T11:52:54.384Z,99195.34
2023-03-29T11:55:28.103Z,99202.41
2023-03-29T11:58:13.685Z,99188.97
2023-03-29T12:00:44.718Z,99197.56
2023-03-29T12:03:16.448Z,99188.31
2023-03-29T12:05:50.304Z,99186.16
2023-03-29T12:08:29.259Z,99186.41
2023-03-29T12:11:24.022Z,99183.03
2023-03-29T12:13:57.334Z,99183.75
2023-03-29T12:16:47.153Z,99176.22
2023-03-29T12:19:23.432Z,99174.47
2023-03-29T12:21:51.879Z,99175.28
2023-03-29T12:24:21.993Z,99175.22
2023-03-29T12:26:57.827Z,99171.25
2023-03-29T12:30:03.105Z,99169.59
2023-03-29T12:33:03.924Z,99161.50
2023-03-29T12:35:41.478Z,99165.59
2023-03-29T12:38:22.392Z,99166.09
2023-03-29T12:40:57.622Z,99167.75
2023-03-29T12:43:39.617Z,99170.44
2023-03-29T12:46:22.920Z,99158.66
2023-03-29T12:48:53.166Z,99164.56
2023-03-29T12:51:31.648Z,99159.75
2023-03-29T12:54:10.454Z,99152.81
2023-03-29T12:57:01.517Z,99152.22
2023-03-29T12:59:35.305Z,99145.53
2023-03-29T13:02:36.277Z,99138.06
2023-03-29T13:05:05.609Z,99153.03
2023-03-29T13:07:47.442Z,99147.41
2023-03-29T13:10:39.514Z,99138.31
2023-03-29T13:13:17.195Z,99138.28
2023-03-29T13:15:44.901Z,99138.81
2023-03-29T13:18:24.241Z,99148.53
2023-03-29T13:21:09.623Z,99138.31
2023-03-29T13:24:08.117Z,99146.66
2023-03-29T13:27:01.788Z,99136.53
2023-03-29T13:29:54.642Z,99138.88
2023-03-29T13:32:50.162Z,99129.47
2023-03-29T13:35:32.856Z,99129.25
2023-03-29T13:38:13.296Z,99120.59
2023-03-29T13:40:40.976Z,99131.88
2023-03-29T13:43:24.959Z,99119.06
2023-03-29T13:46:06.777Z,99128.91
2023-03-29T13:48:58.048Z,99122.00
2023-03-29T13:51:39.341Z,99126.03
2023-03-29T13:54:14.838Z,99130.28
2023-03-29T13:57:10.166Z,99131.38
2023-03-29T13:59:59.110Z,99127.66
2023-03-29T14:02:41.045Z,99132.94
2023-03-29T14:05:12.829Z,99127.03
2023-03-29T14:07:50.899Z,99129.78
2023-03-29T14:10:34.951Z,99129.19
2023-03-29T14:13:04.160Z,99131.88
2023-03-29T14:15:54.178Z,99126.88
2023-03-29T14:18:26.527Z,99128.66
2023-03-29T14:20:56.193Z,99126.69
2023-03-29T14:23:25.660Z,99118.41
2023-03-29T14:25:52.354Z,99118.53
2023-03-29T14:28:30.753Z,99121.19
2023-03-29T14:30:57.377Z,99114.22
2023-03-29T14:33:43.277Z,99119.41
2023-03-29T14:36:16.629Z,99114.50
2023-03-29T14:38:49.835Z,99111.03
2023-03-29T14:41:17.586Z,99110.81
2023-03-29T14:43:46.513Z,99114.00
2023-03-29T14:46:17.450Z,99110.53
2023-03-29T14:48:44.560Z,99116.72
2023-03-29T14:51:11.365Z,99107.88
2023-03-29T14:53:39.594Z,99113.25
2023-03-29T14:56:12.332Z,99110.03
2023-03-29T14:58:40.244Z,99108.72
2023-03-29T15:01:16.304Z,99111.69
2023-03-29T15:03:45.081Z,99111.91
2023-03-29T15:06:13.244Z,99112.09
2023-03-29T15:08:48.204Z,99116.47
2023-03-29T15:11:28.887Z,99108.38
2023-03-29T15:14:02.062Z,99100.88
2023-03-29T15:16:32.905Z,99112.72
2023-03-29T15:19:01.933Z,99099.22
2023-03-29T15:21:33.140Z,99105.16
2023-03-29T15:24:02.393Z,99103.84
2023-03-29T15:26:39.344Z,99102.44
2023-03-29T15:29:23.734Z,99100.81
2023-03-29T15:31:57.700Z,99101.13
2023-03-29T15:34:32.139Z,99100.28
2023-03-29T15:36:59.511Z,99102.47
2023-03-29T15:39:27.917Z,99102.78
2023-03-29T15:41:56.870Z,99095.16
2023-03-29T15:44:29.069Z,99098.75
2023-03-29T15:46:57.989Z,99093.16
2023-03-29T15:49:25.126Z,99096.03
2023-03-29T15:51:54.022Z,99089.91
2023-03-29T15:54:22.968Z,99103.59
2023-03-29T15:56:57.319Z,99091.72
2023-03-29T15:59:25.597Z,99093.94
2023-03-29T16:01:54.455Z,99083.50
2023-03-29T16:04:22.541Z,99088.00
2023-03-29T16:06:52.938Z,99089.09
2023-03-29T16:09:21.459Z,99088.59
2023-03-29T16:11:48.954Z,99082.66
2023-03-29T16:14:18.271Z,99085.13
2023-03-29T16:16:44.941Z,99085.91
2023-03-29T16:19:11.657Z,99085.66
2023-03-29T16:21:38.394Z,99078.94
2023-03-29T16:24:06.143Z,99076.78
2023-03-29T16:26:34.310Z,99083.25
2023-03-29T16:29:01.001Z,99077.03
2023-03-29T16:31:28.947Z,99073.56
2023-03-29T16:33:55.785Z,99087.50
2023-03-29T16:36:22.521Z,99091.78
2023-03-29T16:38:49.185Z,99087.94
2023-03-29T16:41:17.382Z,99090.34
2023-03-29T16:43:44.272Z,99089.56
2023-03-29T16:46:11.777Z,99094.28
2023-03-29T16:48:38.795Z,99085.19
2023-03-29T16:51:07.031Z,99095.34
2023-03-29T16:53:34.492Z,99092.53
2023-03-29T16:56:02.643Z,99103.69
2023-03-29T16:58:29.954Z,99097.66
2023-03-29T17:00:57.188Z,99107.13
2023-03-29T17:03:24.299Z,99109.44
2023-03-29T17:05:54.781Z,99113.50
2023-03-29T17:08:22.014Z,99121.50
2023-03-29T17:10:54.993Z,99130.22
2023-03-29T17:13:26.046Z,99125.34
2023-03-29T17:15:54.465Z,99131.13
2023-03-29T17:18:22.843Z,99135.59
2023-03-29T17:20:56.033Z,99141.50
2023-03-29T17:23:24.166Z,99144.84
2023-03-29T17:25:51.059Z,99148.13
2023-03-29T17:28:18.946Z,99151.91
2023-03-29T17:30:46.346Z,99149.63
2023-03-29T17:33:14.754Z,99150.84
2023-03-29T17:35:44.192Z,99163.28
2023-03-29T17:38:11.791Z,99162.78
2023-03-29T17:40:39.632Z,99167.25
2023-03-29T17:43:06.251Z,99160.53
2023-03-29T17:45:35.248Z,99165.59
2023-03-29T17:48:05.601Z,99163.38
2023-03-29T17:50:33.060Z,99164.09
2023-03-29T17:52:59.744Z,99156.06
2023-03-29T17:55:26.506Z,99163.84
2023-03-29T17:57:53.721Z,99155.22
2023-03-29T18:00:20.933Z,99160.34
2023-03-29T18:02:47.687Z,99157.41
2023-03-29T18:05:14.729Z,99160.47
2023-03-29T18:07:41.477Z,99155.81
2023-03-29T18:10:08.378Z,99165.75
2023-03-29T18:12:34.985Z,99167.66
2023-03-29T18:15:01.741Z,99166.88
2023-03-29T18:17:28.486Z,99167.81
2023-03-29T18:19:55.328Z,99181.94
2023-03-29T18:22:23.986Z,99176.38
2023-03-29T18:24:51.127Z,99179.34
2023-03-29T18:27:18.435Z,99179.63
2023-03-29T18:29:45.156Z,99190.88
2023-03-29T18:32:12.122Z,99194.72
2023-03-29T18:34:39.390Z,99193.41
2023-03-29T18:37:07.419Z,99184.97
2023-03-29T18:39:34.752Z,99197.00
2023-03-29T18:42:02.145Z,99202.25
2023-03-29T18:44:29.098Z,99199.00
2023-03-29T18:46:56.333Z,99196.41
2023-03-29T18:49:25.028Z,99199.91
2023-03-29T18:51:51.890Z,99196.09
2023-03-29T18:54:18.597Z,99196.28
2023-03-29T18:56:45.703Z,99196.28
2023-03-29T18:59:14.175Z,99186.31
2023-03-29T19:01:41.278Z,99189.25
2023-03-29T19:04:08.094Z,99196.41
2023-03-29T19:06:34.800Z,99198.84
2023-03-29T19:09:04.197Z,99193.81
2023-03-29T19:11:32.959Z,99195.44
2023-03-29T19:14:00.889Z,99199.50
2023-03-29T19:16:27.666Z,99200.53
2023-03-29T19:18:54.576Z,99197.16
2023-03-29T19:21:21.205Z,99199.53
2023-03-29T19:23:51.737Z,99203.22
2023-03-29T19:26:18.471Z,99202.03
2023-03-29T19:28:46.397Z,99202.41
2023-03-29T19:31:13.141Z,99200.25
2023-03-29T19:33:42.032Z,99223.78
2023-03-29T19:36:09.944Z,99207.56
2023-03-29T19:38:36.723Z,99213.16
2023-03-29T19:41:11.218Z,99216.03
2023-03-29T19:43:37.814Z,99209.47
2023-03-29T19:46:11.758Z,99202.69
2023-03-29T19:48:39.406Z,99207.59
2023-03-29T19:51:06.165Z,99203.56
2023-03-29T19:53:33.621Z,99199.28
2023-03-29T19:56:02.150Z,99201.03
2023-03-29T19:58:29.417Z,99197.63
2023-03-29T20:01:00.654Z,99200.34
2023-03-29T20:03:28.485Z,99196.84
2023-03-29T20:05:58.080Z,99192.38
2023-03-29T20:08:24.903Z,99200.09
2023-03-29T20:10:59.349Z,99188.41
2023-03-29T20:13:38.257Z,99190.09
2023-03-29T20:16:18.450Z,99193.84
2023-03-29T20:18:46.587Z,99199.22
2023-03-29T20:21:16.700Z,99191.91
2023-03-29T20:23:44.154Z,99199.91
2023-03-29T20:26:10.862Z,99195.34
2023-03-29T20:28:40.506Z,99197.06
2023-03-29T20:31:12.126Z,99200.59
2023-03-29T20:33:39.272Z,99186.03
2023-03-29T20:36:07.830Z,99197.34
2023-03-29T20:38:35.450Z,99185.16
2023-03-29T20:41:04.190Z,99189.47
2023-03-29T20:43:38.251Z,99189.13
2023-03-29T20:46:14.293Z,99180.78
2023-03-29T20:48:54.064Z,99184.72
2023-03-29T20:51:28.040Z,99190.50
2023-03-29T20:54:02.272Z,99185.41
2023-03-29T20:56:31.081Z,99180.69
2023-03-29T20:58:58.972Z,99183.38
2023-03-29T21:01:28.982Z,99188.16
2023-03-29T21:03:55.811Z,99185.72
2023-03-29T21:06:25.507Z,99184.91
2023-03-29T21:08:52.694Z,99187.34
2023-03-29T21:11:21.986Z,99186.75
2023-03-29T21:13:48.631Z,99181.28
2023-03-29T21:16:17.444Z,99173.75
2023-03-29T21:18:45.320Z,99173.94
2023-03-29T21:21:12.431Z,99168.88
2023-03-29T21:23:39.798Z,99163.22
2023-03-29T21:26:09.739Z,99159.16
2023-03-29T21:28:37.677Z,99161.78
2023-03-29T21:31:07.577Z,99170.50
2023-03-29T21:33:35.143Z,99167.47
2023-03-29T21:36:03.270Z,99160.53
2023-03-29T21:38:31.151Z,99165.78
2023-03-29T21:40:59.175Z,99158.66
2023-03-29T21:43:26.878Z,99149.56
2023-03-29T21:45:53.566Z,99151.53
2023-03-29T21:48:21.185Z,99155.19
2023-03-29T21:50:51.140Z,99149.38
2023-03-29T21:53:18.417Z,99145.34
2023-03-29T21:55:47.826Z,99150.06
2023-03-29T21:58:14.691Z,99146.63
2023-03-29T22:00:41.704Z,99146.75
2023-03-29T22:03:08.511Z,99139.41
2023-03-29T22:05:35.506Z,99133.59
2023-03-29T22:08:02.719Z,99136.47
2023-03-29T22:10:29.715Z,99136.53
2023-03-29T22:12:57.075Z,99138.97
2023-03-29T22:15:24.954Z,99134.81
2023-03-29T22:17:53.406Z,99132.88
2023-03-29T22:20:20.886Z,99135.38
2023-03-29T22:22:50.112Z,99129.59
2023-03-29T22:25:18.548Z,99114.56
2023-03-29T22:27:47.512Z,99117.69
2023-03-29T22:30:15.069Z,99118.03
2023-03-29T22:32:41.950Z,99113.81
2023-03-29T22:35:09.256Z,99105.16
2023-03-29T22:37:43.404Z,99101.09
2023-03-29T22:40:12.142Z,99101.13
2023-03-29T22:42:39.863Z,99092.31
2023-03-29T22:45:08.574Z,99088.31
2023-03-29T22:47:35.445Z,99084.63
2023-03-29T22:50:02.230Z,99096.00
2023-03-29T22:52:28.923Z,99096.88
2023-03-29T22:54:55.638Z,99095.97
2023-03-29T22:57:22.696Z,99089.44
2023-03-29T22:59:49.877Z,99086.78
2023-03-29T23:02:16.518Z,99075.66
2023-03-29T23:04:45.378Z,99064.78
2023-03-29T23:07:12.318Z,99070.00
2023-03-29T23:09:38.969Z,99075.19
2023-03-29T23:12:07.232Z,99060.66
2023-03-29T23:14:33.996Z,99054.81
2023-03-29T23:17:00.685Z,99065.19
2023-03-29T23:19:27.496Z,99068.31
2023-03-29T23:21:55.726Z,99064.41
2023-03-29T23:24:22.873Z,99050.16
2023-03-29T23:26:50.761Z,99060.16
2023-03-29T23:29:17.436Z,99060.88
2023-03-29T23:31:44.474Z,99053.88
2023-03-29T23:34:11.195Z,99055.88
2023-03-29T23:36:37.960Z,99050.66
2023-03-29T23:39:07.950Z,99056.63
2023-03-29T23:41:34.564Z,99036.88
2023-03-29T23:44:01.277Z,99045.41
2023-03-29T23:46:27.916Z,99051.19
2023-03-29T23:48:54.701Z,99044.13
2023-03-29T23:51:23.275Z,99040.94
2023-03-29T23:53:50.341Z,99040.94
2023-03-29T23:56:18.769Z,99032.69
2023-03-29T23:58:46.185Z,99030.31
